CPX438 Details

Departure: Philadelphia International Airport (KPHL)
Arrival: Chicago/Rockford International Airport (KRFD) at N/A
Route: PTW SARAA RAV PSB J60 JOT QUOTE
Notes:


Current Weather Information
KPHL 230754Z 26007KT 10SM CLR 14/12 A2983 RMK AO2 SLP100 T01390117 $
KRFD 230754Z 22008KT 10SM CLR 06/M01 A2983 RMK AO2 SLP106 T00561006